This is the latest recevied weather packets stored in our database for station/object OK3MS-5. If no packets are shown the sender has not sent any weather packets the latest 10 day(s).
| Time | Temp. | Humidity | Pressure | Rain* | Wind** | Luminosity | Snow |
|---|---|---|---|---|---|---|---|
| 1787577304 | 22.22° C | 41% | 1018.1 hPa | 0 mm | - | 605 W/m² | - |
| 1787577004 | 23.33° C | 38% | 1018 hPa | 0 mm | - | 416 W/m² | - |
| 1787576704 | 22.78° C | 38% | 1018.2 hPa | 0 mm | - | 550 W/m² | - |
| 1787576403 | 22.22° C | 39% | 1018.4 hPa | 0 mm | - | 658 W/m² | - |
| 1787576103 | 22.22° C | 40% | 1018.5 hPa | 0 mm | - | 677 W/m² | - |
| 1787575803 | 21.67° C | 40% | 1018.7 hPa | 0 mm | - | 638 W/m² | - |
| 1787575504 | 21.67° C | 41% | 1018.6 hPa | 0 mm | - | 626 W/m² | - |
| 1787575205 | 21.67° C | 43% | 1018.7 hPa | 0 mm | - | 690 W/m² | - |
| 1787574904 | 22.22° C | 43% | 1018.5 hPa | 0 mm | - | 677 W/m² | - |
| 1787574602 | 21.67° C | 42% | 1018.6 hPa | 0 mm | - | 591 W/m² | - |
| 1787574303 | 21.67° C | 42% | 1018.7 hPa | 0 mm | - | 535 W/m² | - |
| 1787574004 | 21.67° C | 43% | 1018.8 hPa | 0 mm | - | 658 W/m² | - |
| 1787573704 | 21.67° C | 42% | 1018.8 hPa | 0 mm | - | 617 W/m² | - |
| 1787573104 | 22.22° C | 43% | 1018.8 hPa | 0 mm | - | 682 W/m² | - |
| 1787572804 | 21.67° C | 44% | 1018.9 hPa | 0 mm | - | 690 W/m² | - |
| 1787572503 | 21.67° C | 43% | 1018.9 hPa | 0 mm | - | 645 W/m² | - |
| 1787572205 | 21.67° C | 47% | 1019.1 hPa | 0 mm | - | 697 W/m² | - |
| 1787571903 | 21.11° C | 46% | 1019.2 hPa | 0 mm | - | 701 W/m² | - |
| 1787571604 | 20.56° C | 48% | 1019.5 hPa | 0 mm | - | 700 W/m² | - |
| 1787571303 | 20° C | 49% | 1019.4 hPa | 0 mm | - | 695 W/m² | - |
| 1787571005 | 20.56° C | 50% | 1019.5 hPa | 0 mm | - | 701 W/m² | - |
| 1787570704 | 20.56° C | 48% | 1019.5 hPa | 0 mm | - | 700 W/m² | - |
| 1787570405 | 20.56° C | 49% | 1019.5 hPa | 0 mm | - | 665 W/m² | - |
| 1787570103 | 20.56° C | 51% | 1019.5 hPa | 0 mm | - | 517 W/m² | - |
| 1787569804 | 20.56° C | 50% | 1019.5 hPa | 0 mm | - | 701 W/m² | - |
* Rain latest hour (hover to see other rain measurements)
** Current wind speed in m/s (hover to see current wind gust speed)